Time;durP1;ratioP1;P1;durP2;ratioP2;P2;SDS_P1;SDS_P2;PMS_P1;PMS_P2;Temp;Humidity;BMP_temperature;BMP_pressure;BME280_temperature;BME280_humidity;BME280_pressure;Samples;Min_cycle;Max_cycle;Signal;HPM_P1;HPM_P2
2023/02/04 00:00:03;;;;;;;0.17;0.10;;;20.50;44.90;;;;;;5066496;28;20082;-48
2023/02/04 00:02:33;;;;;;;0.52;0.10;;;20.50;44.90;;;;;;5066926;28;20071;-48
2023/02/04 00:05:00;;;;;;;1.33;0.30;;;20.50;44.90;;;;;;5066698;28;20049;-50
2023/02/04 00:07:27;;;;;;;0.43;0.10;;;20.50;44.90;;;;;;5066759;28;20047;-48
2023/02/04 00:09:55;;;;;;;1.13;0.10;;;20.50;44.90;;;;;;5066265;28;20044;-48
2023/02/04 00:12:23;;;;;;;0.63;0.63;;;20.50;44.90;;;;;;5066340;28;20045;-46
2023/02/04 00:14:50;;;;;;;1.63;0.10;;;20.50;44.90;;;;;;5066763;28;20060;-51
2023/02/04 00:17:17;;;;;;;0.20;0.10;;;20.40;44.80;;;;;;5066663;28;20055;-50
2023/02/04 00:19:44;;;;;;;0.57;0.17;;;20.40;44.90;;;;;;5066459;28;20129;-47
2023/02/04 00:22:11;;;;;;;0.93;0.10;;;20.40;44.90;;;;;;5066368;28;20048;-51
2023/02/04 00:24:38;;;;;;;1.05;0.10;;;20.40;44.90;;;;;;5066512;28;20123;-49
2023/02/04 00:27:07;;;;;;;1.40;0.20;;;20.40;45.50;;;;;;5066128;28;20279;-50
2023/02/04 00:29:35;;;;;;;1.75;0.10;;;20.40;44.90;;;;;;5066423;28;20395;-49
2023/02/04 00:32:04;;;;;;;1.33;0.20;;;20.40;44.90;;;;;;5066369;28;20058;-51
2023/02/04 00:34:31;;;;;;;1.08;0.15;;;20.40;44.90;;;;;;5055247;28;20056;-51
2023/02/04 00:36:58;;;;;;;0.30;0.30;;;20.40;45.00;;;;;;5046224;28;20057;-49
2023/02/04 00:39:26;;;;;;;0.52;0.10;;;20.40;45.00;;;;;;5044932;28;20041;-48
2023/02/04 00:41:53;;;;;;;0.38;0.30;;;20.40;45.00;;;;;;5052464;28;20036;-52
2023/02/04 00:44:20;;;;;;;0.98;0.22;;;20.40;45.00;;;;;;5066362;28;20063;-49
2023/02/04 00:46:48;;;;;;;2.20;0.25;;;20.40;45.00;;;;;;5066426;28;20127;-50
2023/02/04 00:49:15;;;;;;;1.40;0.10;;;20.40;45.00;;;;;;5066174;28;20041;-50
2023/02/04 00:51:45;;;;;;;1.42;0.20;;;20.40;45.00;;;;;;5066277;28;20043;-49
2023/02/04 00:54:14;;;;;;;0.85;0.20;;;20.40;45.00;;;;;;5078502;28;20463;-46
2023/02/04 00:56:41;;;;;;;1.25;0.50;;;20.40;45.10;;;;;;5082359;28;20043;-49
2023/02/04 00:59:10;;;;;;;0.60;0.10;;;20.40;45.00;;;;;;5085308;28;20047;-49
2023/02/04 01:01:37;;;;;;;0.80;0.22;;;20.40;45.10;;;;;;5084798;28;20046;-49
2023/02/04 01:04:06;;;;;;;1.85;0.30;;;20.40;45.10;;;;;;5086246;28;20483;-48
2023/02/04 01:06:33;;;;;;;0.50;0.50;;;20.40;45.10;;;;;;5085696;28;20107;-49
2023/02/04 01:09:01;;;;;;;2.10;0.38;;;20.30;45.00;;;;;;5085913;28;20051;-52
2023/02/04 01:11:28;;;;;;;0.20;0.10;;;20.40;45.10;;;;;;5075691;28;20047;-50
2023/02/04 01:13:55;;;;;;;0.32;0.20;;;20.30;45.00;;;;;;5056962;28;20169;-49
2023/02/04 01:16:23;;;;;;;1.00;0.20;;;20.30;45.00;;;;;;5053458;28;20048;-49
2023/02/04 01:18:54;;;;;;;0.30;0.30;;;20.30;45.60;;;;;;5058445;28;20122;-51
2023/02/04 01:21:23;;;;;;;1.02;0.22;;;20.30;45.70;;;;;;5060199;28;20055;-50
2023/02/04 01:23:50;;;;;;;2.08;0.10;;;20.30;45.10;;;;;;5065190;28;20147;-47
2023/02/04 01:26:17;;;;;;;1.52;0.13;;;20.30;45.10;;;;;;5051266;28;20472;-47
2023/02/04 01:28:44;;;;;;;2.00;0.20;;;20.30;45.10;;;;;;5046187;28;20040;-50
2023/02/04 01:31:12;;;;;;;2.75;1.05;;;20.30;45.10;;;;;;5064515;28;20049;-49
2023/02/04 01:33:39;;;;;;;2.65;0.85;;;20.30;45.10;;;;;;5045305;28;20047;-47
2023/02/04 01:36:06;;;;;;;2.05;0.10;;;20.30;45.10;;;;;;5045008;28;20505;-49
2023/02/04 01:38:35;;;;;;;2.05;0.20;;;20.30;45.10;;;;;;5044732;28;20417;-52
2023/02/04 01:41:02;;;;;;;1.25;0.57;;;20.30;45.10;;;;;;5043095;28;20120;-48
2023/02/04 01:43:31;;;;;;;0.45;0.30;;;20.30;45.20;;;;;;5065960;28;20045;-48
2023/02/04 01:46:01;;;;;;;0.63;0.32;;;20.30;45.20;;;;;;5064985;28;20048;-50
2023/02/04 01:48:28;;;;;;;1.25;0.20;;;20.30;45.20;;;;;;5063558;28;20048;-51
2023/02/04 01:51:02;;;;;;;2.22;0.20;;;20.30;45.20;;;;;;5065021;28;20433;-49
2023/02/04 01:53:29;;;;;;;1.63;0.73;;;20.20;45.20;;;;;;5064872;28;20044;-48
2023/02/04 01:55:58;;;;;;;2.05;0.20;;;20.30;45.20;;;;;;5063633;28;20041;-47
2023/02/04 01:58:25;;;;;;;2.17;0.47;;;20.20;45.20;;;;;;5063302;28;20040;-47
2023/02/04 02:00:52;;;;;;;2.88;0.28;;;20.20;45.20;;;;;;5063559;28;20072;-47
2023/02/04 02:03:19;;;;;;;0.55;0.20;;;20.20;45.20;;;;;;5063326;28;20122;-49
2023/02/04 02:05:48;;;;;;;2.58;0.30;;;20.30;45.30;;;;;;5046911;28;20193;-47
2023/02/04 02:08:16;;;;;;;2.47;1.13;;;20.20;45.30;;;;;;5064350;28;20630;-47
2023/02/04 02:10:46;;;;;;;0.73;0.20;;;20.20;45.30;;;;;;5067716;28;20120;-48
2023/02/04 02:13:17;;;;;;;0.93;0.10;;;20.30;45.30;;;;;;5068613;28;20094;-47
2023/02/04 02:15:45;;;;;;;2.50;0.50;;;20.20;45.30;;;;;;5068735;28;20072;-51
2023/02/04 02:18:12;;;;;;;2.92;0.30;;;20.20;45.30;;;;;;5069006;28;20055;-48
2023/02/04 02:20:42;;;;;;;0.77;0.40;;;20.20;45.30;;;;;;5068448;28;20040;-48
2023/02/04 02:23:18;;;;;;;0.45;0.20;;;20.20;45.30;;;;;;5067133;28;20044;-49
2023/02/04 02:25:47;;;;;;;0.40;0.10;;;20.20;45.30;;;;;;5068871;28;20044;-48
2023/02/04 02:28:18;;;;;;;0.73;0.20;;;20.20;45.30;;;;;;5067155;28;20044;-51
2023/02/04 02:30:47;;;;;;;1.90;0.25;;;20.20;45.40;;;;;;5068317;28;20041;-50
2023/02/04 02:33:17;;;;;;;2.28;0.85;;;20.20;45.40;;;;;;5067297;28;20044;-47
2023/02/04 02:35:47;;;;;;;1.88;0.43;;;20.20;45.40;;;;;;5068611;28;20741;-48
2023/02/04 02:38:15;;;;;;;0.93;0.25;;;20.20;45.40;;;;;;5067183;28;20101;-52
2023/02/04 02:40:42;;;;;;;2.05;0.43;;;20.20;45.40;;;;;;5068149;28;20037;-52
2023/02/04 02:43:15;;;;;;;1.15;1.02;;;20.20;45.40;;;;;;5068351;28;20118;-49
2023/02/04 02:45:42;;;;;;;2.38;0.50;;;20.20;46.00;;;;;;5068373;28;20041;-49
2023/02/04 02:48:11;;;;;;;1.30;0.20;;;20.20;45.40;;;;;;5074544;28;20131;-50
2023/02/04 02:50:39;;;;;;;0.68;0.10;;;20.20;45.40;;;;;;5088730;28;20048;-46
2023/02/04 02:53:11;;;;;;;4.03;1.15;;;20.20;45.50;;;;;;5088356;28;20050;-46
2023/02/04 02:55:39;;;;;;;1.17;0.10;;;20.20;45.50;;;;;;5087252;28;20415;-48
2023/02/04 02:58:14;;;;;;;0.77;0.45;;;20.20;45.50;;;;;;5088436;28;20044;-45
2023/02/04 03:00:41;;;;;;;0.85;0.20;;;20.20;45.50;;;;;;5077538;28;20063;-47
2023/02/04 03:03:12;;;;;;;2.08;0.17;;;20.20;45.50;;;;;;5068428;28;20049;-46
2023/02/04 03:05:42;;;;;;;2.05;1.00;;;20.20;45.50;;;;;;5066884;28;20520;-45
2023/02/04 03:08:12;;;;;;;1.75;0.20;;;20.20;45.60;;;;;;5066585;28;20048;-46
2023/02/04 03:10:40;;;;;;;1.67;0.20;;;20.20;45.60;;;;;;5067933;28;20508;-48
2023/02/04 03:13:07;;;;;;;2.90;0.20;;;20.20;45.90;;;;;;5066168;28;20032;-48
2023/02/04 03:15:35;;;;;;;4.32;0.75;;;20.20;45.60;;;;;;5066202;28;20135;-48
2023/02/04 03:18:03;;;;;;;1.95;0.10;;;20.20;45.60;;;;;;5067785;28;20475;-48
2023/02/04 03:20:32;;;;;;;1.70;0.30;;;20.10;45.60;;;;;;5067083;28;20055;-48
2023/02/04 03:22:59;;;;;;;1.05;0.43;;;20.10;45.60;;;;;;5067307;28;20128;-46
2023/02/04 03:25:28;;;;;;;2.65;0.30;;;20.10;45.60;;;;;;5066365;28;20049;-46
2023/02/04 03:27:59;;;;;;;0.85;0.30;;;20.20;45.70;;;;;;5067658;28;20143;-46
2023/02/04 03:30:27;;;;;;;0.95;0.20;;;20.10;45.60;;;;;;5067042;28;20481;-46
2023/02/04 03:32:55;;;;;;;1.20;0.50;;;20.10;45.70;;;;;;5067541;28;20049;-47
2023/02/04 03:35:23;;;;;;;2.17;0.20;;;20.10;45.70;;;;;;5066741;28;20418;-47
2023/02/04 03:37:50;;;;;;;1.67;0.20;;;20.10;45.70;;;;;;5067569;28;20050;-48
2023/02/04 03:40:17;;;;;;;1.75;0.20;;;20.10;45.70;;;;;;5067360;28;20048;-49
2023/02/04 03:42:45;;;;;;;3.13;0.30;;;20.10;45.70;;;;;;5067185;28;20044;-48
2023/02/04 03:45:12;;;;;;;1.63;1.05;;;20.10;45.70;;;;;;5067133;28;20099;-51
2023/02/04 03:47:39;;;;;;;3.05;1.38;;;20.10;45.70;;;;;;5067381;28;20409;-46
2023/02/04 03:50:09;;;;;;;1.70;0.20;;;20.10;45.70;;;;;;5049654;28;20049;-47
2023/02/04 03:52:37;;;;;;;3.78;0.35;;;20.10;45.70;;;;;;5047162;28;20049;-48
2023/02/04 03:55:04;;;;;;;1.00;0.30;;;20.10;45.80;;;;;;5047001;28;20041;-49
2023/02/04 03:57:31;;;;;;;1.05;0.30;;;20.10;45.80;;;;;;5045685;28;20391;-52
2023/02/04 03:59:59;;;;;;;1.88;0.22;;;20.10;45.80;;;;;;5046420;28;20152;-49
2023/02/04 04:02:26;;;;;;;1.48;0.20;;;20.10;45.80;;;;;;5046778;28;20045;-48
2023/02/04 04:04:53;;;;;;;1.88;0.20;;;20.10;45.80;;;;;;5046442;28;20036;-48
2023/02/04 04:07:21;;;;;;;2.65;0.85;;;20.10;45.80;;;;;;5046793;28;20120;-50
2023/02/04 04:09:48;;;;;;;0.82;0.30;;;20.20;45.90;;;;;;5046456;28;20587;-49
2023/02/04 04:12:15;;;;;;;3.13;0.30;;;20.10;45.80;;;;;;5046629;28;20841;-47
2023/02/04 04:14:42;;;;;;;4.05;0.20;;;20.10;45.80;;;;;;5061857;28;20036;-51
2023/02/04 04:17:09;;;;;;;1.33;0.20;;;20.10;45.90;;;;;;5066090;28;20491;-47
2023/02/04 04:19:37;;;;;;;1.85;0.40;;;20.10;46.50;;;;;;5065893;28;20041;-48
2023/02/04 04:22:05;;;;;;;4.47;1.17;;;20.10;45.90;;;;;;5066181;28;20122;-47
2023/02/04 04:24:33;;;;;;;0.68;0.13;;;20.10;45.90;;;;;;5066132;28;20616;-48
2023/02/04 04:27:01;;;;;;;1.10;0.20;;;20.10;45.90;;;;;;5066272;28;20072;-47
2023/02/04 04:29:28;;;;;;;2.63;0.20;;;20.10;46.00;;;;;;5065819;28;20445;-47
2023/02/04 04:31:56;;;;;;;1.55;0.17;;;20.10;45.90;;;;;;5065617;28;20079;-46
2023/02/04 04:34:24;;;;;;;2.85;0.20;;;20.10;45.90;;;;;;5065648;28;20063;-47
2023/02/04 04:36:51;;;;;;;2.03;0.20;;;20.10;46.00;;;;;;5065851;28;20063;-49
2023/02/04 04:39:18;;;;;;;1.55;0.52;;;20.10;46.00;;;;;;5066099;28;20075;-47
2023/02/04 04:41:46;;;;;;;1.13;0.20;;;20.10;46.00;;;;;;5065989;28;20037;-48
2023/02/04 04:44:13;;;;;;;0.80;0.10;;;20.10;46.00;;;;;;5066015;28;20076;-47
2023/02/04 04:46:41;;;;;;;1.67;0.10;;;20.10;46.00;;;;;;5066676;28;20051;-47
2023/02/04 04:49:09;;;;;;;4.93;0.68;;;20.10;46.00;;;;;;5085399;28;20160;-45
2023/02/04 04:51:36;;;;;;;2.20;1.17;;;20.10;46.00;;;;;;5086254;28;20047;-49
2023/02/04 04:54:03;;;;;;;0.63;0.63;;;20.10;46.60;;;;;;5086125;28;20044;-48
2023/02/04 04:56:30;;;;;;;0.77;0.35;;;20.10;46.10;;;;;;5084730;28;20044;-47
2023/02/04 04:58:59;;;;;;;0.88;0.10;;;20.10;46.10;;;;;;5086039;28;20245;-46
2023/02/04 05:01:28;;;;;;;1.60;0.20;;;20.10;46.10;;;;;;5085647;28;20052;-48
2023/02/04 05:03:55;;;;;;;1.85;0.20;;;20.10;46.10;;;;;;5085524;28;20040;-50
2023/02/04 05:06:24;;;;;;;2.50;0.10;;;20.10;46.10;;;;;;5085942;28;20837;-47
2023/02/04 05:08:51;;;;;;;1.80;0.38;;;20.10;46.10;;;;;;5081296;28;20040;-46
2023/02/04 05:11:18;;;;;;;2.97;0.30;;;20.10;46.10;;;;;;5065388;28;20052;-46
2023/02/04 05:13:46;;;;;;;2.35;0.25;;;20.10;46.10;;;;;;5064945;28;20064;-47
2023/02/04 05:16:17;;;;;;;2.60;0.30;;;20.10;46.10;;;;;;5064774;28;20045;-47
2023/02/04 05:18:44;;;;;;;1.65;0.45;;;20.10;46.10;;;;;;5064966;28;20048;-47
2023/02/04 05:21:11;;;;;;;0.80;0.10;;;20.10;46.10;;;;;;5063692;28;20120;-49
2023/02/04 05:23:38;;;;;;;0.32;0.10;;;20.10;46.10;;;;;;5065076;28;20093;-47
2023/02/04 05:26:05;;;;;;;2.17;0.13;;;20.10;46.10;;;;;;5056115;28;20928;-48
2023/02/04 05:28:32;;;;;;;1.65;0.30;;;20.10;46.10;;;;;;5045893;28;20462;-48
2023/02/04 05:31:00;;;;;;;0.55;0.15;;;20.10;46.10;;;;;;5064355;28;20040;-49
2023/02/04 05:33:29;;;;;;;3.63;0.73;;;20.10;46.10;;;;;;5064704;28;20070;-47
2023/02/04 05:35:57;;;;;;;3.05;0.20;;;20.10;46.10;;;;;;5064728;28;20071;-47
2023/02/04 05:38:24;;;;;;;4.93;0.30;;;20.10;46.10;;;;;;5064746;28;20467;-47
2023/02/04 05:40:51;;;;;;;0.38;0.10;;;20.10;46.20;;;;;;5064723;28;20053;-48
2023/02/04 05:43:18;;;;;;;1.90;0.35;;;20.10;46.20;;;;;;5064464;28;20517;-47
2023/02/04 05:45:46;;;;;;;0.75;0.10;;;20.10;46.10;;;;;;5063719;28;20513;-49
2023/02/04 05:48:13;;;;;;;1.95;0.20;;;20.10;46.20;;;;;;5064643;28;20079;-49
2023/02/04 05:50:41;;;;;;;2.67;0.40;;;20.10;46.20;;;;;;5064606;28;20044;-46
2023/02/04 05:53:08;;;;;;;3.65;0.85;;;20.10;46.20;;;;;;5064672;28;20048;-47
2023/02/04 05:55:35;;;;;;;0.43;0.22;;;20.10;46.20;;;;;;5064628;28;20075;-49
2023/02/04 05:58:02;;;;;;;3.00;0.55;;;20.10;46.20;;;;;;5064525;28;20217;-47
2023/02/04 06:00:30;;;;;;;0.65;0.13;;;20.10;46.20;;;;;;5062499;28;20081;-48
2023/02/04 06:02:57;;;;;;;1.35;0.20;;;20.10;46.20;;;;;;5064297;28;20094;-48
2023/02/04 06:05:24;;;;;;;2.70;0.20;;;20.10;46.20;;;;;;5064525;28;20044;-48
2023/02/04 06:07:52;;;;;;;2.53;0.20;;;20.10;46.20;;;;;;5064269;28;20531;-50
2023/02/04 06:10:20;;;;;;;1.27;0.20;;;20.10;46.20;;;;;;5063952;28;20056;-48
2023/02/04 06:12:48;;;;;;;0.85;0.25;;;20.10;46.20;;;;;;5064193;28;20052;-47
2023/02/04 06:15:15;;;;;;;0.93;0.10;;;20.10;46.20;;;;;;5047045;28;20045;-47
2023/02/04 06:17:42;;;;;;;2.97;0.47;;;20.10;46.20;;;;;;5042366;28;20123;-46
2023/02/04 06:20:13;;;;;;;1.67;0.20;;;20.10;46.20;;;;;;5045621;28;20134;-48
2023/02/04 06:22:40;;;;;;;1.08;0.30;;;20.10;46.20;;;;;;5064170;28;20395;-46
2023/02/04 06:25:09;;;;;;;1.50;0.35;;;20.10;46.20;;;;;;5064298;28;20513;-48
2023/02/04 06:27:36;;;;;;;1.75;0.20;;;20.10;46.20;;;;;;5064519;28;20052;-48
2023/02/04 06:30:04;;;;;;;1.75;0.55;;;20.10;46.20;;;;;;5063797;28;20041;-48
2023/02/04 06:32:31;;;;;;;0.52;0.20;;;20.10;46.20;;;;;;5063889;28;20040;-49
2023/02/04 06:34:58;;;;;;;3.33;0.52;;;20.10;46.20;;;;;;5064068;28;20799;-48
2023/02/04 06:37:25;;;;;;;2.58;0.20;;;20.10;46.20;;;;;;5063899;28;20052;-46
2023/02/04 06:39:53;;;;;;;1.05;0.40;;;20.10;46.20;;;;;;5064044;28;20132;-48
2023/02/04 06:42:21;;;;;;;0.28;0.15;;;20.10;46.10;;;;;;5062775;28;20044;-47
2023/02/04 06:44:48;;;;;;;2.22;1.25;;;20.10;46.20;;;;;;5063833;28;20858;-46
2023/02/04 06:47:15;;;;;;;1.60;0.50;;;20.10;46.20;;;;;;5064021;28;20055;-47
2023/02/04 06:49:43;;;;;;;1.88;0.77;;;20.10;46.80;;;;;;5073828;28;20055;-49
2023/02/04 06:52:10;;;;;;;1.17;0.30;;;20.10;46.10;;;;;;5084484;28;20051;-52
2023/02/04 06:54:37;;;;;;;1.48;0.20;;;20.20;46.20;;;;;;5084470;28;20044;-49
2023/02/04 06:57:06;;;;;;;0.82;0.10;;;20.20;46.20;;;;;;5086408;28;20043;-49
2023/02/04 06:59:35;;;;;;;0.30;0.20;;;20.10;46.20;;;;;;5087707;28;20096;-46
2023/02/04 07:02:03;;;;;;;2.63;1.55;;;20.10;46.10;;;;;;5082543;28;20055;-48
2023/02/04 07:04:31;;;;;;;1.42;0.10;;;20.10;46.10;;;;;;5067153;28;20408;-47
2023/02/04 07:06:58;;;;;;;2.53;0.22;;;20.10;46.10;;;;;;5068670;28;20040;-49
2023/02/04 07:09:25;;;;;;;1.67;0.13;;;20.10;46.20;;;;;;5066913;28;20041;-49
2023/02/04 07:11:52;;;;;;;0.60;0.13;;;20.10;46.10;;;;;;5067391;28;20661;-48
2023/02/04 07:14:20;;;;;;;3.55;0.47;;;20.10;46.10;;;;;;5067080;28;20048;-50
2023/02/04 07:16:48;;;;;;;2.40;0.17;;;20.10;46.10;;;;;;5066987;28;20483;-49
2023/02/04 07:19:15;;;;;;;0.47;0.20;;;20.20;46.80;;;;;;5065440;28;20538;-48
2023/02/04 07:21:42;;;;;;;3.60;0.43;;;20.10;46.10;;;;;;5067298;28;20052;-49
2023/02/04 07:24:09;;;;;;;0.65;0.20;;;20.10;46.10;;;;;;5066965;28;20052;-46
2023/02/04 07:26:37;;;;;;;0.35;0.25;;;20.10;46.20;;;;;;5066810;28;20775;-48
2023/02/04 07:29:04;;;;;;;3.15;0.40;;;20.10;46.10;;;;;;5065037;28;20049;-51
2023/02/04 07:31:31;;;;;;;0.90;0.20;;;20.10;46.10;;;;;;5066932;28;20159;-50
2023/02/04 07:33:59;;;;;;;1.52;0.20;;;20.10;46.20;;;;;;5066811;28;20036;-48
2023/02/04 07:36:26;;;;;;;1.73;0.30;;;20.10;46.10;;;;;;5066504;28;20068;-48
2023/02/04 07:38:53;;;;;;;3.55;0.30;;;20.10;46.10;;;;;;5067179;28;20110;-47
2023/02/04 07:41:20;;;;;;;2.95;0.30;;;20.10;46.10;;;;;;5066524;28;20421;-49
2023/02/04 07:43:47;;;;;;;0.63;0.20;;;20.10;46.80;;;;;;5065266;28;20483;-47
2023/02/04 07:46:15;;;;;;;1.25;0.30;;;20.10;46.10;;;;;;5066735;28;20051;-46
2023/02/04 07:48:42;;;;;;;2.45;0.38;;;20.10;46.20;;;;;;5066644;28;20053;-47
2023/02/04 07:51:10;;;;;;;0.55;0.20;;;20.10;46.20;;;;;;5066307;28;20052;-48
2023/02/04 07:53:37;;;;;;;3.20;0.20;;;20.10;46.20;;;;;;5066780;28;20040;-51
2023/02/04 07:56:05;;;;;;;1.80;0.65;;;20.10;46.20;;;;;;5066310;28;20532;-48
2023/02/04 07:58:32;;;;;;;4.15;0.17;;;20.10;46.10;;;;;;5066672;28;20041;-47
2023/02/04 08:01:00;;;;;;;1.15;0.20;;;20.10;46.20;;;;;;5066649;28;20121;-46
2023/02/04 08:03:27;;;;;;;1.95;0.28;;;20.10;46.10;;;;;;5066821;28;20044;-52
2023/02/04 08:05:54;;;;;;;5.22;1.30;;;20.10;46.10;;;;;;5066350;28;20051;-48
2023/02/04 08:08:23;;;;;;;1.75;0.30;;;20.10;46.10;;;;;;5065983;28;20048;-47
2023/02/04 08:10:50;;;;;;;2.78;0.50;;;20.10;46.10;;;;;;5066234;28;20075;-45
2023/02/04 08:13:18;;;;;;;0.80;0.20;;;20.10;46.10;;;;;;5066442;28;20932;-48
2023/02/04 08:15:45;;;;;;;1.35;0.40;;;20.10;46.10;;;;;;5064777;28;20586;-48
2023/02/04 08:18:12;;;;;;;1.58;0.50;;;20.10;46.10;;;;;;5066203;28;20454;-45
2023/02/04 08:20:39;;;;;;;1.48;0.30;;;20.10;46.10;;;;;;5066091;28;20630;-46
2023/02/04 08:23:07;;;;;;;1.60;0.32;;;20.10;46.10;;;;;;5066058;28;20152;-46
2023/02/04 08:25:35;;;;;;;0.55;0.55;;;20.10;46.10;;;;;;5064354;28;20048;-48
2023/02/04 08:28:03;;;;;;;1.20;0.50;;;20.20;46.20;;;;;;5066034;28;20983;-48
2023/02/04 08:30:30;;;;;;;1.85;0.30;;;20.20;46.20;;;;;;5065547;28;20087;-49
2023/02/04 08:32:57;;;;;;;1.13;0.50;;;20.20;46.20;;;;;;5065869;28;20037;-49
2023/02/04 08:35:24;;;;;;;0.73;0.57;;;20.20;46.80;;;;;;5066104;28;20066;-47
2023/02/04 08:37:52;;;;;;;2.47;0.22;;;20.20;46.20;;;;;;5065892;28;20044;-48
2023/02/04 08:40:19;;;;;;;0.85;0.57;;;20.20;46.20;;;;;;5065408;28;20128;-50
2023/02/04 08:42:47;;;;;;;1.40;0.30;;;20.20;46.20;;;;;;5065811;28;20129;-48
2023/02/04 08:45:15;;;;;;;2.42;0.45;;;20.20;46.20;;;;;;5066063;28;20044;-48
2023/02/04 08:47:43;;;;;;;0.93;0.38;;;20.20;46.20;;;;;;5065849;28;20071;-46
2023/02/04 08:50:11;;;;;;;3.65;0.52;;;20.20;46.20;;;;;;5069290;28;20075;-48
2023/02/04 08:52:38;;;;;;;0.77;0.20;;;20.20;46.20;;;;;;5085903;28;20131;-49
2023/02/04 08:55:06;;;;;;;2.53;0.60;;;20.20;46.20;;;;;;5085640;28;20128;-46
2023/02/04 08:57:33;;;;;;;3.90;0.40;;;20.20;46.20;;;;;;5084894;28;20060;-46
2023/02/04 09:00:02;;;;;;;2.10;0.25;;;20.20;46.20;;;;;;5085986;28;20070;-52
2023/02/04 09:02:29;;;;;;;1.80;0.40;;;20.20;46.20;;;;;;5085259;28;20584;-46
2023/02/04 09:04:57;;;;;;;1.85;0.30;;;20.20;46.20;;;;;;5082249;28;20161;-46
2023/02/04 09:07:24;;;;;;;0.30;0.20;;;20.20;46.20;;;;;;5085208;28;20044;-48
2023/02/04 09:09:51;;;;;;;3.70;0.70;;;20.20;46.20;;;;;;5085481;28;20040;-47
2023/02/04 09:12:18;;;;;;;2.17;0.65;;;20.20;46.20;;;;;;5085394;28;20620;-47
2023/02/04 09:14:45;;;;;;;1.55;0.20;;;20.20;46.20;;;;;;5069086;28;20041;-49
2023/02/04 09:17:14;;;;;;;3.35;0.50;;;20.20;46.10;;;;;;5065210;28;20102;-48
2023/02/04 09:19:41;;;;;;;0.30;0.25;;;20.20;46.10;;;;;;5064490;28;20090;-50
2023/02/04 09:22:08;;;;;;;1.92;0.60;;;20.20;46.10;;;;;;5063233;28;20040;-50
2023/02/04 09:24:35;;;;;;;1.58;0.30;;;20.20;46.10;;;;;;5064458;28;20102;-49
2023/02/04 09:27:02;;;;;;;1.08;0.38;;;20.20;46.10;;;;;;5067437;28;20110;-47
2023/02/04 09:29:29;;;;;;;1.00;0.30;;;20.30;46.10;;;;;;5057937;28;20161;-49
2023/02/04 09:31:56;;;;;;;2.60;0.45;;;20.30;46.10;;;;;;5064722;28;20131;-49
2023/02/04 09:34:25;;;;;;;2.90;0.20;;;20.30;46.10;;;;;;5064839;28;20044;-48
2023/02/04 09:36:52;;;;;;;0.90;0.47;;;20.30;46.10;;;;;;5064860;28;20147;-49
2023/02/04 09:39:20;;;;;;;1.25;0.20;;;20.30;46.20;;;;;;5064561;28;20091;-48
2023/02/04 09:41:47;;;;;;;2.53;0.30;;;20.30;46.10;;;;;;5065100;28;20123;-47
2023/02/04 09:44:18;;;;;;;3.38;0.20;;;20.30;46.20;;;;;;5065079;28;20127;-47
2023/02/04 09:46:50;;;;;;;1.10;0.20;;;20.30;46.20;;;;;;5064858;28;20572;-48
2023/02/04 09:49:17;;;;;;;0.52;0.20;;;20.30;46.20;;;;;;5064827;28;20098;-47
2023/02/04 09:51:47;;;;;;;2.45;0.20;;;20.30;46.20;;;;;;5064621;28;20067;-46
2023/02/04 09:54:16;;;;;;;1.95;0.43;;;20.30;46.20;;;;;;5064954;28;20045;-48
2023/02/04 09:56:43;;;;;;;1.90;0.40;;;20.30;46.20;;;;;;5064798;28;20048;-45
2023/02/04 09:59:12;;;;;;;0.68;0.20;;;20.30;46.30;;;;;;5064630;28;20097;-48
2023/02/04 10:01:40;;;;;;;1.73;0.20;;;20.30;46.30;;;;;;5064520;28;20524;-48
2023/02/04 10:04:12;;;;;;;1.45;0.20;;;20.30;46.30;;;;;;5065108;28;20101;-48
2023/02/04 10:06:40;;;;;;;0.80;0.20;;;20.30;46.30;;;;;;5064650;28;20040;-47
2023/02/04 10:09:12;;;;;;;1.05;1.05;;;20.30;46.30;;;;;;5064710;28;20036;-46
2023/02/04 10:11:41;;;;;;;0.20;0.20;;;20.30;46.30;;;;;;5065074;28;20127;-46
2023/02/04 10:14:13;;;;;;;0.73;0.73;;;20.30;46.30;;;;;;5064453;28;20745;-46
2023/02/04 10:16:42;;;;;;;1.27;0.10;;;20.30;46.40;;;;;;5060692;28;20039;-49
2023/02/04 10:19:14;;;;;;;1.15;0.10;;;20.30;46.40;;;;;;5044356;28;20072;-48
2023/02/04 10:21:47;;;;;;;0.80;0.20;;;20.30;46.40;;;;;;5044180;28;20044;-46
2023/02/04 10:24:18;;;;;;;1.00;0.47;;;20.30;46.50;;;;;;5043958;28;20049;-52
2023/02/04 10:26:45;;;;;;;0.68;0.10;;;20.30;46.40;;;;;;5044187;28;20076;-48
2023/02/04 10:29:16;;;;;;;1.42;0.38;;;20.30;46.50;;;;;;5050968;28;20040;-49
2023/02/04 10:31:45;;;;;;;0.55;0.38;;;20.30;46.50;;;;;;5065840;28;20133;-47
2023/02/04 10:34:20;;;;;;;1.75;0.15;;;20.30;46.50;;;;;;5068131;28;20638;-48
2023/02/04 10:36:49;;;;;;;0.95;0.20;;;20.30;47.10;;;;;;5067605;28;20049;-46
2023/02/04 10:39:19;;;;;;;0.70;0.30;;;20.30;46.50;;;;;;5067913;28;20040;-49
2023/02/04 10:41:49;;;;;;;0.32;0.32;;;20.30;46.50;;;;;;5067906;28;20094;-47
2023/02/04 10:44:18;;;;;;;0.40;0.20;;;20.30;46.50;;;;;;5068173;28;20040;-48
2023/02/04 10:46:45;;;;;;;0.55;0.13;;;20.30;46.60;;;;;;5067873;28;20040;-48
2023/02/04 10:49:19;;;;;;;0.85;0.20;;;20.30;46.60;;;;;;5068001;28;20094;-49
2023/02/04 10:51:47;;;;;;;0.10;0.10;;;20.40;46.60;;;;;;5067706;28;20048;-46
2023/02/04 10:54:29;;;;;;;1.58;0.52;;;20.30;46.60;;;;;;5067634;28;20040;-47
2023/02/04 10:57:04;;;;;;;0.90;0.10;;;20.30;46.60;;;;;;5068022;28;20600;-46
2023/02/04 10:59:31;;;;;;;0.75;0.10;;;20.30;46.70;;;;;;5074469;28;20040;-49
2023/02/04 11:02:01;;;;;;;1.30;0.10;;;20.30;46.60;;;;;;5087965;28;20130;-48
2023/02/04 11:04:29;;;;;;;0.40;0.40;;;20.30;46.60;;;;;;5086176;28;20529;-47
2023/02/04 11:06:56;;;;;;;0.10;0.10;;;20.30;46.60;;;;;;5061677;28;20516;-49
2023/02/04 11:09:23;;;;;;;1.38;0.20;;;20.40;46.70;;;;;;5047961;28;20041;-50
2023/02/04 11:11:51;;;;;;;1.13;0.10;;;20.40;46.70;;;;;;5068101;28;20069;-46
2023/02/04 11:14:25;;;;;;;0.20;0.10;;;20.40;46.70;;;;;;5075409;28;20044;-49
2023/02/04 11:16:53;;;;;;;1.98;0.90;;;20.40;46.70;;;;;;5066197;28;20052;-47
2023/02/04 11:19:33;;;;;;;0.05;0.05;;;20.40;46.80;;;;;;5067217;28;20037;-54
2023/02/04 11:22:21;;;;;;;1.20;0.10;;;20.40;46.80;;;;;;5067560;28;20052;-46
2023/02/04 11:24:50;;;;;;;0.15;0.10;;;20.40;46.80;;;;;;5067067;28;20036;-50
2023/02/04 11:27:23;;;;;;;0.10;0.10;;;20.40;46.80;;;;;;5067091;28;20041;-46
2023/02/04 11:30:04;;;;;;;1.85;0.10;;;20.40;46.80;;;;;;5067142;28;20057;-48
2023/02/04 11:32:34;;;;;;;1.27;0.10;;;20.40;46.80;;;;;;5065500;28;20051;-49
2023/02/04 11:35:23;;;;;;;0.15;0.05;;;20.40;46.80;;;;;;5066319;28;20052;-48
2023/02/04 11:37:51;;;;;;;0.10;0.10;;;20.40;46.70;;;;;;5065321;28;20056;-50
2023/02/04 11:40:27;;;;;;;1.77;0.10;;;20.40;46.80;;;;;;5066695;28;20055;-48
2023/02/04 11:43:02;;;;;;;0.10;0.10;;;20.40;46.80;;;;;;5066351;28;20197;-51
2023/02/04 11:45:33;;;;;;;0.10;0.10;;;20.40;46.80;;;;;;5066808;28;20151;-50
2023/02/04 11:48:03;;;;;;;0.30;0.10;;;20.40;46.80;;;;;;5066342;28;20044;-47
2023/02/04 11:50:32;;;;;;;0.10;0.10;;;20.40;47.40;;;;;;5064918;28;20045;-47
2023/02/04 11:53:01;;;;;;;0.10;0.10;;;20.40;46.80;;;;;;5066499;28;20084;-48
2023/02/04 11:55:30;;;;;;;0.10;0.10;;;20.40;46.80;;;;;;5055526;28;20053;-46
2023/02/04 11:57:58;;;;;;;0.25;0.20;;;20.50;46.80;;;;;;5046455;28;20070;-47
2023/02/04 12:00:29;;;;;;;0.85;0.40;;;20.50;46.80;;;;;;5046200;28;20110;-49
2023/02/04 12:02:59;;;;;;;0.43;0.10;;;20.50;46.80;;;;;;5045938;28;20049;-47
2023/02/04 12:05:41;;;;;;;0.25;0.17;;;20.50;46.80;;;;;;5046130;28;20455;-46
2023/02/04 12:08:14;;;;;;;0.20;0.20;;;20.50;46.80;;;;;;5046239;28;20576;-50
2023/02/04 12:10:49;;;;;;;0.30;0.10;;;20.50;46.90;;;;;;5044569;28;20053;-50
2023/02/04 12:13:23;;;;;;;0.68;0.10;;;20.50;46.80;;;;;;5048133;28;20060;-47
2023/02/04 12:15:57;;;;;;;0.43;0.10;;;20.50;46.80;;;;;;5066114;28;20055;-48
2023/02/04 12:18:27;;;;;;;1.75;0.10;;;20.50;46.80;;;;;;5065613;28;20072;-45
2023/02/04 12:20:56;;;;;;;0.20;0.10;;;20.50;46.80;;;;;;5065822;28;20072;-50
2023/02/04 12:23:23;;;;;;;0.55;0.20;;;20.50;46.80;;;;;;5065672;28;20032;-45
2023/02/04 12:25:51;;;;;;;0.30;0.10;;;20.50;46.80;;;;;;5065589;28;20178;-49
2023/02/04 12:28:19;;;;;;;0.60;0.30;;;20.50;46.80;;;;;;5065494;28;20041;-46
2023/02/04 12:30:46;;;;;;;0.73;0.10;;;20.50;46.80;;;;;;5065462;28;20165;-48
2023/02/04 12:33:13;;;;;;;0.75;0.30;;;20.50;46.80;;;;;;5064970;28;20055;-47
2023/02/04 12:35:42;;;;;;;0.40;0.32;;;20.50;46.80;;;;;;5065349;28;20102;-47
2023/02/04 12:38:11;;;;;;;0.32;0.10;;;20.60;46.80;;;;;;5065382;28;20054;-47
2023/02/04 12:40:39;;;;;;;0.60;0.10;;;20.50;47.30;;;;;;5063766;28;20055;-49
2023/02/04 12:43:09;;;;;;;0.30;0.20;;;20.50;46.80;;;;;;5061528;28;20037;-47
2023/02/04 12:45:36;;;;;;;1.00;0.20;;;20.50;46.80;;;;;;5065688;28;20051;-48
2023/02/04 12:48:05;;;;;;;1.60;0.10;;;20.50;46.80;;;;;;5064965;28;20063;-50
2023/02/04 12:50:33;;;;;;;0.17;0.17;;;20.50;46.80;;;;;;5065344;28;20052;-48
2023/02/04 12:53:03;;;;;;;0.20;0.10;;;20.50;46.80;;;;;;5065184;28;20044;-46